Time;durP1;ratioP1;P1;durP2;ratioP2;P2;SDS_P1;SDS_P2;PMS_P1;PMS_P2;Temp;Humidity;BMP_temperature;BMP_pressure;BME280_temperature;BME280_humidity;BME280_pressure;Samples;Min_cycle;Max_cycle;Signal;HPM_P1;HPM_P2
2022/11/26 00:02:18;;;;;;;31.50;12.00;;;7.80;99.90;;;;;;5094402;28;20156;-70
2022/11/26 00:04:44;;;;;;;28.67;11.37;;;7.80;99.90;;;;;;5094286;28;20646;-71
2022/11/26 00:07:11;;;;;;;25.37;11.10;;;7.80;99.90;;;;;;5094393;28;20164;-70
2022/11/26 00:09:38;;;;;;;24.57;11.07;;;7.80;99.90;;;;;;5094068;28;20172;-69
2022/11/26 00:12:16;;;;;;;31.90;10.90;;;7.90;99.90;;;;;;5094018;28;20172;-70
2022/11/26 00:14:42;;;;;;;29.57;11.33;;;7.90;99.90;;;;;;5093823;28;20212;-70
2022/11/26 00:17:12;;;;;;;33.43;11.17;;;7.80;99.90;;;;;;5093899;28;20160;-70
2022/11/26 00:19:41;;;;;;;31.37;10.60;;;7.90;99.90;;;;;;5094036;28;20160;-69
2022/11/26 00:22:31;;;;;;;30.20;10.70;;;7.90;99.90;;;;;;5093933;28;20167;-70
2022/11/26 00:24:56;;;;;;;26.80;10.87;;;7.90;99.90;;;;;;5082156;28;20651;-71
2022/11/26 00:27:25;;;;;;;33.23;10.83;;;7.90;99.90;;;;;;5093861;28;20186;-70
2022/11/26 00:29:51;;;;;;;27.80;10.07;;;7.90;99.90;;;;;;5093415;28;20683;-70
2022/11/26 00:32:19;;;;;;;30.77;10.93;;;7.90;99.90;;;;;;5093403;28;20315;-70
2022/11/26 00:34:45;;;;;;;36.53;11.03;;;8.00;99.90;;;;;;5093513;28;20214;-69
2022/11/26 00:37:17;;;;;;;33.03;10.33;;;7.90;99.90;;;;;;5093598;28;20168;-69
2022/11/26 00:39:43;;;;;;;39.17;10.73;;;8.00;99.90;;;;;;5093878;28;20230;-70
2022/11/26 00:42:09;;;;;;;30.90;10.03;;;8.00;99.90;;;;;;5093689;28;20167;-71
2022/11/26 00:44:35;;;;;;;27.43;9.80;;;7.90;99.90;;;;;;5093291;28;20238;-70
2022/11/26 00:47:03;;;;;;;25.53;9.93;;;7.90;99.90;;;;;;5093669;28;20164;-71
2022/11/26 00:49:29;;;;;;;30.20;10.40;;;7.90;99.90;;;;;;5093542;28;20215;-70
2022/11/26 00:51:54;;;;;;;33.17;10.80;;;7.90;99.90;;;;;;5093592;28;20280;-70
2022/11/26 00:54:22;;;;;;;29.90;10.70;;;7.80;99.90;;;;;;5093236;28;20210;-70
2022/11/26 00:56:49;;;;;;;24.97;11.57;;;7.90;99.90;;;;;;5093176;28;20164;-69
2022/11/26 00:59:19;;;;;;;25.87;10.33;;;7.80;99.90;;;;;;5093478;28;20178;-70
2022/11/26 01:01:44;;;;;;;28.93;11.20;;;7.80;99.90;;;;;;5093218;28;20167;-69
2022/11/26 01:04:11;;;;;;;31.67;10.83;;;7.90;99.90;;;;;;5093461;28;20662;-69
2022/11/26 01:06:39;;;;;;;30.70;10.50;;;7.80;99.90;;;;;;5093260;28;20179;-70
2022/11/26 01:09:06;;;;;;;25.23;9.40;;;7.70;99.90;;;;;;5093446;28;20199;-70
2022/11/26 01:11:32;;;;;;;25.13;10.67;;;7.80;99.90;;;;;;5092940;28;20172;-70
2022/11/26 01:13:58;;;;;;;30.70;10.23;;;7.80;99.90;;;;;;5092990;28;20233;-71
2022/11/26 01:16:44;;;;;;;27.00;9.83;;;7.70;99.90;;;;;;5093100;28;20211;-70
2022/11/26 01:19:14;;;;;;;31.70;10.07;;;7.70;99.90;;;;;;5092896;28;20179;-71
2022/11/26 01:21:40;;;;;;;30.03;10.63;;;7.70;99.90;;;;;;5093248;28;20159;-71
2022/11/26 01:24:06;;;;;;;25.03;9.23;;;7.70;99.90;;;;;;5075071;28;20536;-70
2022/11/26 01:26:36;;;;;;;29.50;9.90;;;7.70;99.90;;;;;;5092699;28;20195;-69
2022/11/26 01:29:01;;;;;;;27.40;10.27;;;7.70;99.90;;;;;;5093079;28;20167;-70
2022/11/26 01:31:28;;;;;;;24.50;9.37;;;7.60;99.90;;;;;;5096990;28;20163;-71
2022/11/26 01:33:54;;;;;;;31.27;10.20;;;7.60;99.90;;;;;;5097276;28;20225;-69
2022/11/26 01:36:31;;;;;;;26.47;10.07;;;7.50;99.90;;;;;;5097251;28;20245;-70
2022/11/26 01:39:03;;;;;;;28.23;9.60;;;7.50;99.90;;;;;;5097147;28;20163;-70
2022/11/26 01:41:29;;;;;;;27.30;10.20;;;7.50;99.90;;;;;;5096804;28;20301;-69
2022/11/26 01:43:57;;;;;;;29.90;9.57;;;7.50;99.90;;;;;;5096949;28;20175;-69
2022/11/26 01:46:25;;;;;;;30.50;10.03;;;7.50;99.90;;;;;;5097105;28;20168;-71
2022/11/26 01:48:51;;;;;;;24.47;9.60;;;7.50;99.90;;;;;;5079018;28;20214;-70
2022/11/26 01:51:23;;;;;;;36.03;10.67;;;7.50;99.90;;;;;;5096860;28;20172;-70
2022/11/26 01:53:58;;;;;;;36.13;10.60;;;7.50;99.90;;;;;;5096633;28;20237;-69
2022/11/26 01:56:53;;;;;;;33.63;10.43;;;7.50;99.90;;;;;;5096512;28;20174;-69
2022/11/26 01:59:23;;;;;;;25.47;9.50;;;7.50;99.90;;;;;;5096668;28;20175;-70
2022/11/26 02:01:51;;;;;;;30.17;10.77;;;7.50;99.90;;;;;;5096647;28;20167;-70
2022/11/26 02:04:39;;;;;;;28.03;10.80;;;7.50;99.90;;;;;;5096456;28;20168;-70
2022/11/26 02:07:05;;;;;;;31.57;10.17;;;7.40;99.90;;;;;;5095844;28;20184;-69
2022/11/26 02:09:31;;;;;;;31.53;10.03;;;7.50;99.90;;;;;;5096202;28;20164;-70
2022/11/26 02:11:57;;;;;;;36.03;10.17;;;7.40;99.90;;;;;;5096339;28;20165;-69
2022/11/26 02:14:27;;;;;;;33.80;10.70;;;7.40;99.90;;;;;;5096390;28;20260;-70
2022/11/26 02:17:13;;;;;;;27.83;10.03;;;7.40;99.90;;;;;;5096259;28;20221;-71
2022/11/26 02:19:57;;;;;;;32.60;10.30;;;7.40;99.90;;;;;;5054966;28;20249;-70
2022/11/26 02:22:37;;;;;;;26.33;9.80;;;7.40;99.90;;;;;;5096313;28;20172;-70
2022/11/26 02:25:27;;;;;;;27.27;8.30;;;7.40;99.90;;;;;;5095633;28;20234;-69
2022/11/26 02:28:17;;;;;;;25.27;9.13;;;7.40;99.90;;;;;;5096075;28;20503;-70
2022/11/26 02:30:48;;;;;;;29.17;9.60;;;7.40;99.90;;;;;;5095897;28;20187;-70
2022/11/26 02:33:32;;;;;;;32.70;9.37;;;7.30;99.90;;;;;;5095603;28;20219;-70
2022/11/26 02:36:06;;;;;;;26.73;8.83;;;7.40;99.90;;;;;;5096120;28;20244;-70
2022/11/26 02:38:40;;;;;;;32.13;8.70;;;7.30;99.90;;;;;;5095455;28;20466;-70
2022/11/26 02:41:09;;;;;;;26.77;8.43;;;7.40;99.90;;;;;;5095543;28;20172;-70
2022/11/26 02:43:36;;;;;;;21.00;8.00;;;7.40;99.90;;;;;;5077308;28;20168;-71
2022/11/26 02:46:08;;;;;;;23.13;8.20;;;7.40;99.90;;;;;;5095775;28;20168;-70
2022/11/26 02:48:37;;;;;;;29.43;8.37;;;7.40;99.90;;;;;;5095865;28;20181;-70
2022/11/26 02:51:16;;;;;;;27.87;8.43;;;7.50;99.90;;;;;;5095621;28;20184;-69
2022/11/26 02:53:44;;;;;;;22.67;8.17;;;7.50;99.90;;;;;;5095254;28;20281;-70
2022/11/26 02:56:19;;;;;;;27.40;8.10;;;7.40;99.90;;;;;;5095344;28;20172;-69
2022/11/26 02:58:47;;;;;;;25.13;7.93;;;7.50;99.90;;;;;;5095534;28;20317;-69
2022/11/26 03:01:19;;;;;;;28.10;7.77;;;7.40;99.90;;;;;;5094122;28;20180;-69
2022/11/26 03:03:51;;;;;;;23.93;8.13;;;7.40;99.90;;;;;;5095477;28;20568;-69
2022/11/26 03:06:17;;;;;;;28.20;8.27;;;7.40;99.90;;;;;;5095435;28;20173;-70
2022/11/26 03:08:44;;;;;;;23.87;7.90;;;7.40;99.90;;;;;;5076792;28;20581;-69
2022/11/26 03:11:13;;;;;;;23.07;8.23;;;7.40;99.90;;;;;;5095275;28;20650;-70
2022/11/26 03:13:39;;;;;;;31.90;7.70;;;7.40;99.90;;;;;;5095229;28;20286;-70
2022/11/26 03:16:04;;;;;;;24.80;7.50;;;7.40;99.90;;;;;;5095630;28;20251;-69
2022/11/26 03:18:33;;;;;;;24.23;8.43;;;7.50;99.90;;;;;;5095220;28;20176;-69
2022/11/26 03:20:59;;;;;;;26.57;7.90;;;7.40;99.90;;;;;;5095364;28;20259;-70
2022/11/26 03:23:24;;;;;;;20.80;7.13;;;7.50;99.90;;;;;;5094594;28;20179;-70
2022/11/26 03:25:50;;;;;;;27.80;7.57;;;7.40;99.90;;;;;;5094935;28;20164;-69
2022/11/26 03:28:16;;;;;;;26.30;7.50;;;7.50;99.90;;;;;;5095086;28;20183;-70
2022/11/26 03:30:41;;;;;;;23.43;7.50;;;7.50;99.90;;;;;;5095046;28;20194;-69
2022/11/26 03:33:07;;;;;;;27.97;7.83;;;7.40;99.90;;;;;;5094893;28;20224;-69
2022/11/26 03:35:32;;;;;;;20.03;7.77;;;7.40;99.90;;;;;;5094713;28;20740;-70
2022/11/26 03:37:58;;;;;;;25.97;6.87;;;7.40;99.90;;;;;;5094198;28;20179;-70
2022/11/26 03:40:23;;;;;;;19.37;6.77;;;7.40;99.90;;;;;;5094477;28;20631;-70
2022/11/26 03:42:49;;;;;;;20.30;6.30;;;7.40;99.90;;;;;;5094703;28;20191;-70
2022/11/26 03:45:14;;;;;;;21.77;6.90;;;7.40;99.90;;;;;;5094694;28;20670;-70
2022/11/26 03:47:46;;;;;;;27.60;7.03;;;7.40;99.90;;;;;;5094682;28;20241;-69
2022/11/26 03:50:12;;;;;;;18.87;6.23;;;7.50;99.90;;;;;;5094678;28;20655;-70
2022/11/26 03:52:37;;;;;;;25.43;7.33;;;7.50;99.90;;;;;;5093400;28;20172;-71
2022/11/26 03:55:06;;;;;;;19.37;6.57;;;7.40;99.90;;;;;;5094494;28;20620;-70
2022/11/26 03:57:32;;;;;;;20.83;7.10;;;7.40;99.90;;;;;;5094321;28;20548;-70
2022/11/26 03:59:57;;;;;;;19.50;6.73;;;7.40;99.90;;;;;;5076292;28;20175;-70
2022/11/26 04:02:23;;;;;;;25.93;7.03;;;7.40;99.90;;;;;;5094529;28;20170;-70
2022/11/26 04:04:48;;;;;;;26.10;7.10;;;7.40;99.90;;;;;;5094114;28;20658;-71
2022/11/26 04:07:20;;;;;;;22.40;6.90;;;7.40;99.90;;;;;;5093550;28;20167;-71
2022/11/26 04:09:45;;;;;;;27.03;7.00;;;7.40;99.90;;;;;;5094198;28;20174;-70
2022/11/26 04:12:11;;;;;;;29.80;6.80;;;7.40;99.90;;;;;;5093879;28;20176;-70
2022/11/26 04:14:37;;;;;;;21.50;6.73;;;7.50;99.90;;;;;;5093990;28;20685;-70
2022/11/26 04:17:02;;;;;;;27.23;7.47;;;7.50;99.90;;;;;;5093549;28;20638;-70
2022/11/26 04:19:29;;;;;;;28.73;6.93;;;7.50;99.90;;;;;;5093822;28;20182;-71
2022/11/26 04:21:55;;;;;;;18.67;6.10;;;7.50;99.90;;;;;;5075849;28;20263;-70
2022/11/26 04:24:23;;;;;;;29.03;7.60;;;7.50;99.90;;;;;;5094018;28;20263;-71
2022/11/26 04:26:49;;;;;;;25.77;6.90;;;7.50;99.90;;;;;;5093817;28;20171;-71
2022/11/26 04:29:14;;;;;;;23.33;6.40;;;7.50;99.90;;;;;;5093801;28;20164;-69
2022/11/26 04:31:40;;;;;;;22.27;6.97;;;7.50;99.90;;;;;;5093753;28;20316;-71
2022/11/26 04:34:05;;;;;;;24.40;6.80;;;7.50;99.90;;;;;;5093612;28;20219;-71
2022/11/26 04:36:31;;;;;;;25.43;7.00;;;7.50;99.90;;;;;;5075105;28;20172;-71
2022/11/26 04:38:57;;;;;;;29.87;7.80;;;7.50;99.90;;;;;;5093491;28;20182;-71
2022/11/26 04:41:23;;;;;;;24.70;6.30;;;7.60;99.90;;;;;;5093442;28;20172;-71
2022/11/26 04:43:49;;;;;;;21.57;6.27;;;7.60;99.90;;;;;;5093573;28;20252;-71
2022/11/26 04:46:15;;;;;;;23.63;6.43;;;7.70;99.90;;;;;;5093362;28;20172;-72
2022/11/26 04:48:43;;;;;;;22.37;6.50;;;7.70;99.90;;;;;;5093084;28;20662;-71
2022/11/26 04:51:09;;;;;;;22.40;6.87;;;7.70;99.90;;;;;;5093447;28;20206;-71
2022/11/26 04:53:34;;;;;;;22.63;6.43;;;7.70;99.90;;;;;;5092039;28;20168;-72
2022/11/26 04:56:00;;;;;;;24.33;6.20;;;7.70;99.90;;;;;;5093027;28;20697;-71
2022/11/26 04:58:26;;;;;;;25.73;6.03;;;7.80;99.90;;;;;;5091627;28;20325;-71
2022/11/26 05:00:54;;;;;;;19.03;6.70;;;7.80;99.90;;;;;;5091913;28;20191;-72
2022/11/26 05:03:22;;;;;;;28.17;7.13;;;7.80;99.90;;;;;;5092276;28;20217;-72
2022/11/26 05:05:48;;;;;;;22.73;6.87;;;7.70;99.90;;;;;;5092311;28;20176;-71
2022/11/26 05:08:14;;;;;;;25.90;6.53;;;7.60;99.90;;;;;;5074633;28;20259;-71
2022/11/26 05:10:40;;;;;;;26.60;6.33;;;7.50;99.90;;;;;;5093328;28;20172;-70
2022/11/26 05:13:05;;;;;;;27.37;6.73;;;7.50;99.90;;;;;;5092764;28;20246;-71
2022/11/26 05:15:31;;;;;;;23.90;6.80;;;7.50;99.90;;;;;;5093211;28;20219;-71
2022/11/26 05:17:56;;;;;;;24.03;6.50;;;7.50;99.90;;;;;;5092609;28;20190;-71
2022/11/26 05:20:23;;;;;;;25.40;6.67;;;7.50;99.90;;;;;;5093044;28;20190;-71
2022/11/26 05:22:48;;;;;;;26.10;6.83;;;7.60;99.90;;;;;;5092644;28;20164;-70
2022/11/26 05:25:17;;;;;;;23.30;6.77;;;7.60;99.90;;;;;;5075105;28;20183;-70
2022/11/26 05:27:42;;;;;;;18.93;6.70;;;7.60;99.90;;;;;;5074861;28;20179;-70
2022/11/26 05:30:09;;;;;;;27.67;6.50;;;7.60;99.90;;;;;;5092859;28;20171;-70
2022/11/26 05:32:34;;;;;;;19.90;7.20;;;7.70;99.90;;;;;;5092459;28;20223;-70
2022/11/26 05:35:00;;;;;;;24.93;6.30;;;7.60;99.90;;;;;;5091345;28;20211;-70
2022/11/26 05:37:28;;;;;;;23.13;6.43;;;7.60;99.90;;;;;;5093013;28;20217;-70
2022/11/26 05:39:54;;;;;;;22.53;6.63;;;7.60;99.90;;;;;;5092680;28;20584;-70
2022/11/26 05:42:19;;;;;;;24.73;6.10;;;7.60;99.90;;;;;;5092667;28;20301;-70
2022/11/26 05:44:48;;;;;;;26.77;7.33;;;7.60;99.90;;;;;;5092652;28;20183;-70
2022/11/26 05:47:13;;;;;;;34.37;6.90;;;7.50;99.90;;;;;;5092396;28;20176;-70
2022/11/26 05:49:39;;;;;;;19.03;7.03;;;7.60;99.90;;;;;;5092441;28;20590;-70
2022/11/26 05:52:10;;;;;;;22.77;6.57;;;7.60;99.90;;;;;;5092635;28;20263;-70
2022/11/26 05:54:36;;;;;;;21.70;6.50;;;7.60;99.90;;;;;;5092543;28;20212;-70
2022/11/26 05:57:01;;;;;;;27.43;6.77;;;7.60;99.90;;;;;;5092565;28;20190;-70
2022/11/26 05:59:28;;;;;;;23.37;6.47;;;7.60;99.90;;;;;;5091775;28;20200;-70
2022/11/26 06:01:54;;;;;;;25.10;6.57;;;7.60;99.90;;;;;;5092100;28;20233;-70
2022/11/26 06:04:19;;;;;;;23.40;5.53;;;7.60;99.90;;;;;;5092601;28;20250;-71
2022/11/26 06:06:45;;;;;;;22.23;6.50;;;7.70;99.90;;;;;;5092775;28;20247;-70
2022/11/26 06:09:11;;;;;;;25.10;6.20;;;7.70;99.90;;;;;;5092451;28;20176;-70
2022/11/26 06:11:36;;;;;;;18.97;6.53;;;7.70;99.90;;;;;;5092353;28;20176;-69
2022/11/26 06:14:05;;;;;;;26.40;6.53;;;7.70;99.90;;;;;;5092190;28;20207;-69
2022/11/26 06:16:30;;;;;;;20.63;6.13;;;7.80;99.90;;;;;;5094444;28;20631;-70
2022/11/26 06:18:56;;;;;;;22.43;6.07;;;7.80;99.90;;;;;;5096086;28;20184;-70
2022/11/26 06:21:22;;;;;;;24.60;6.57;;;7.80;99.90;;;;;;5095789;28;20631;-69
2022/11/26 06:23:47;;;;;;;25.60;6.37;;;7.70;99.90;;;;;;5077969;28;20183;-70
2022/11/26 06:26:13;;;;;;;25.33;6.50;;;7.80;99.90;;;;;;5096067;28;20203;-70
2022/11/26 06:28:39;;;;;;;26.03;6.30;;;7.80;99.90;;;;;;5077671;28;20191;-70
2022/11/26 06:31:06;;;;;;;27.27;6.43;;;7.80;99.90;;;;;;5095494;28;20174;-70
2022/11/26 06:33:32;;;;;;;26.10;6.57;;;7.90;99.90;;;;;;5095862;28;20363;-70
2022/11/26 06:36:02;;;;;;;25.30;6.50;;;7.80;99.90;;;;;;5096117;28;20239;-70
2022/11/26 06:38:27;;;;;;;20.27;6.63;;;7.80;99.90;;;;;;5096272;28;20176;-69
2022/11/26 06:41:01;;;;;;;21.73;6.30;;;7.80;99.90;;;;;;5095920;28;20175;-70
2022/11/26 06:43:27;;;;;;;25.07;6.17;;;7.80;99.90;;;;;;5094866;28;20268;-70
2022/11/26 06:45:53;;;;;;;22.43;6.70;;;7.80;99.90;;;;;;5095209;28;20164;-69
2022/11/26 06:48:22;;;;;;;21.83;6.60;;;7.70;99.90;;;;;;5095595;28;20168;-71
2022/11/26 06:50:47;;;;;;;19.60;6.23;;;7.80;99.90;;;;;;5096022;28;20540;-69
2022/11/26 06:53:13;;;;;;;20.13;6.50;;;7.80;99.90;;;;;;5095494;28;20179;-69
2022/11/26 06:55:39;;;;;;;17.93;6.13;;;7.80;99.90;;;;;;5094995;28;20207;-70
2022/11/26 06:58:04;;;;;;;18.77;5.80;;;7.80;99.90;;;;;;5094883;28;20266;-70
2022/11/26 07:00:30;;;;;;;25.27;6.87;;;7.80;99.90;;;;;;5094598;28;20176;-70
2022/11/26 07:02:55;;;;;;;22.93;7.20;;;7.80;99.90;;;;;;5095569;28;20168;-71
2022/11/26 07:05:21;;;;;;;28.13;6.60;;;7.80;99.90;;;;;;5076772;28;20172;-70
2022/11/26 07:07:46;;;;;;;23.10;6.07;;;7.80;99.90;;;;;;5095075;28;20172;-70
2022/11/26 07:10:12;;;;;;;23.10;5.77;;;7.90;99.90;;;;;;5077412;28;20176;-70
2022/11/26 07:12:37;;;;;;;20.70;6.50;;;7.90;99.90;;;;;;5094487;28;20203;-70
2022/11/26 07:15:04;;;;;;;24.27;6.43;;;7.90;99.90;;;;;;5093183;28;20302;-70
2022/11/26 07:17:29;;;;;;;22.20;6.50;;;7.90;99.90;;;;;;5094849;28;20313;-71
2022/11/26 07:19:55;;;;;;;26.23;7.53;;;8.00;99.90;;;;;;5095033;28;20591;-70
2022/11/26 07:22:20;;;;;;;25.03;7.17;;;7.90;99.90;;;;;;5094537;28;20184;-71
2022/11/26 07:24:48;;;;;;;25.20;7.77;;;8.00;99.90;;;;;;5095092;28;20175;-70
2022/11/26 07:27:32;;;;;;;26.27;6.77;;;8.00;99.90;;;;;;5093810;28;20653;-71
2022/11/26 07:29:57;;;;;;;17.53;7.00;;;8.00;99.90;;;;;;5093918;28;20574;-70
2022/11/26 07:32:23;;;;;;;21.60;6.50;;;8.00;99.90;;;;;;5094030;28;20220;-71
2022/11/26 07:34:49;;;;;;;24.87;6.40;;;8.00;99.90;;;;;;5094628;28;20314;-71
2022/11/26 07:37:15;;;;;;;21.43;6.30;;;8.10;99.90;;;;;;5094797;28;20663;-71
2022/11/26 07:39:41;;;;;;;18.73;6.47;;;8.10;99.90;;;;;;5094394;28;20182;-69
2022/11/26 07:42:06;;;;;;;21.73;6.30;;;8.20;99.90;;;;;;5094100;28;20246;-70
2022/11/26 07:44:32;;;;;;;22.93;6.70;;;8.20;99.90;;;;;;5094171;28;20542;-70
2022/11/26 07:46:58;;;;;;;27.10;6.27;;;8.30;99.90;;;;;;5094140;28;20580;-69
2022/11/26 07:49:23;;;;;;;19.20;6.43;;;8.40;99.90;;;;;;5093919;28;20270;-69
2022/11/26 07:51:49;;;;;;;23.20;6.10;;;8.40;99.90;;;;;;5094639;28;20301;-70
2022/11/26 07:54:14;;;;;;;19.40;6.10;;;8.50;99.90;;;;;;5093735;28;20221;-70
2022/11/26 07:56:43;;;;;;;22.87;6.13;;;8.60;99.90;;;;;;5093784;28;20267;-71
2022/11/26 07:59:10;;;;;;;22.27;5.50;;;8.70;99.90;;;;;;5093472;28;20611;-70
2022/11/26 08:01:36;;;;;;;18.37;5.37;;;8.80;99.90;;;;;;5094324;28;20174;-70
2022/11/26 08:04:05;;;;;;;21.70;5.63;;;9.00;99.90;;;;;;5092820;28;20180;-71
2022/11/26 08:06:31;;;;;;;22.40;5.60;;;9.10;99.90;;;;;;5093675;28;20197;-71
2022/11/26 08:09:01;;;;;;;22.13;5.30;;;9.30;99.90;;;;;;5092089;28;20509;-70
2022/11/26 08:11:29;;;;;;;17.17;5.27;;;9.40;99.90;;;;;;5092670;28;20532;-70
2022/11/26 08:14:00;;;;;;;23.43;6.20;;;9.60;99.90;;;;;;5075316;28;20204;-70
2022/11/26 08:16:26;;;;;;;16.93;4.60;;;9.70;99.90;;;;;;5093980;28;20235;-71
2022/11/26 08:19:04;;;;;;;17.63;5.30;;;9.90;99.90;;;;;;5094023;28;20297;-70
2022/11/26 08:21:30;;;;;;;20.53;5.43;;;10.10;99.90;;;;;;5093308;28;20167;-70
2022/11/26 08:23:56;;;;;;;19.33;5.07;;;10.30;99.90;;;;;;5093794;28;20178;-71
2022/11/26 08:26:24;;;;;;;21.43;4.73;;;10.50;99.90;;;;;;5093500;28;20175;-71
2022/11/26 08:28:50;;;;;;;22.23;5.23;;;10.80;99.90;;;;;;5093424;28;20171;-71
2022/11/26 08:31:17;;;;;;;17.57;4.70;;;11.00;99.90;;;;;;5093388;28;20164;-70
2022/11/26 08:33:43;;;;;;;17.93;4.63;;;11.20;99.90;;;;;;5092957;28;20219;-71
2022/11/26 08:36:10;;;;;;;20.07;5.00;;;11.50;99.90;;;;;;5093796;28;20583;-71
2022/11/26 08:38:36;;;;;;;20.63;5.20;;;11.60;99.90;;;;;;5093378;28;20531;-71
2022/11/26 08:41:04;;;;;;;17.07;5.03;;;11.90;99.90;;;;;;5092850;28;20171;-71
2022/11/26 08:43:33;;;;;;;16.93;4.90;;;11.90;99.90;;;;;;5092788;28;20194;-70
2022/11/26 08:45:59;;;;;;;14.93;4.60;;;11.90;99.90;;;;;;5093437;28;20164;-71
2022/11/26 08:48:27;;;;;;;18.23;5.70;;;11.90;99.90;;;;;;5092854;28;20172;-71
2022/11/26 08:50:59;;;;;;;19.60;6.60;;;12.10;99.90;;;;;;5092871;28;20592;-71
2022/11/26 08:53:29;;;;;;;16.00;4.87;;;12.50;99.90;;;;;;5074916;28;20384;-71
2022/11/26 08:56:13;;;;;;;11.50;4.43;;;12.70;99.90;;;;;;5092450;28;20179;-71
2022/11/26 08:58:47;;;;;;;16.23;4.80;;;12.80;99.90;;;;;;5092974;28;20682;-70
2022/11/26 09:01:21;;;;;;;21.53;4.90;;;12.70;99.90;;;;;;5074149;28;20197;-72
2022/11/26 09:03:49;;;;;;;16.87;5.27;;;12.80;99.90;;;;;;5092919;28;20284;-72
2022/11/26 09:06:14;;;;;;;15.33;4.73;;;13.10;99.90;;;;;;5092626;28;20175;-71
2022/11/26 09:11:31;;;;;;;14.77;4.37;;;13.70;99.90;;;;;;5092305;28;20179;-71
2022/11/26 09:13:58;;;;;;;16.20;4.40;;;13.60;99.90;;;;;;5093222;28;20246;-72
2022/11/26 09:16:24;;;;;;;15.90;4.50;;;13.90;99.90;;;;;;5092827;28;20525;-71
2022/11/26 09:18:50;;;;;;;15.53;4.60;;;14.10;99.90;;;;;;5092371;28;20182;-71
2022/11/26 09:21:16;;;;;;;17.37;4.97;;;14.30;99.90;;;;;;5074333;28;20214;-70
2022/11/26 09:23:42;;;;;;;13.80;4.67;;;14.20;99.90;;;;;;5092701;28;20227;-71
2022/11/26 09:26:08;;;;;;;14.67;4.97;;;14.30;99.90;;;;;;5092523;28;20668;-70
2022/11/26 09:28:33;;;;;;;11.50;5.20;;;14.60;99.90;;;;;;5092413;28;20599;-71
2022/11/26 09:31:00;;;;;;;10.83;4.47;;;14.40;99.90;;;;;;5092505;28;20305;-70
2022/11/26 09:33:27;;;;;;;13.90;4.77;;;13.60;99.90;;;;;;5092636;28;20226;-70
2022/11/26 09:35:56;;;;;;;11.97;4.10;;;13.40;99.90;;;;;;5092505;28;20269;-68
2022/11/26 09:38:21;;;;;;;15.03;5.13;;;13.20;99.90;;;;;;5074724;28;20665;-69
2022/11/26 09:41:05;;;;;;;15.13;5.43;;;13.00;99.90;;;;;;5092235;28;20264;-69
2022/11/26 09:43:54;;;;;;;19.40;5.13;;;12.90;99.90;;;;;;5092979;28;20171;-69
2022/11/26 09:46:30;;;;;;;15.53;5.40;;;12.80;99.90;;;;;;5091982;28;20251;-70
2022/11/26 09:48:59;;;;;;;18.90;5.53;;;12.90;99.90;;;;;;5092398;28;20211;-70
2022/11/26 09:51:24;;;;;;;14.23;5.10;;;13.10;99.90;;;;;;5094723;28;20646;-70
2022/11/26 09:53:51;;;;;;;16.47;5.87;;;13.30;99.90;;;;;;5096023;28;20196;-69
2022/11/26 09:56:23;;;;;;;18.67;5.37;;;13.00;99.90;;;;;;5096268;28;20172;-70
2022/11/26 09:59:02;;;;;;;18.47;4.67;;;13.00;99.90;;;;;;5096123;28;20217;-69
2022/11/26 10:01:30;;;;;;;15.23;5.30;;;12.90;99.90;;;;;;5095877;28;20168;-71
2022/11/26 10:03:57;;;;;;;18.03;4.77;;;13.10;99.90;;;;;;5096109;28;20247;-71
2022/11/26 10:06:31;;;;;;;14.70;4.27;;;13.50;99.90;;;;;;5096282;28;20678;-71
2022/11/26 10:08:59;;;;;;;15.97;5.43;;;14.00;99.90;;;;;;5095765;28;20692;-71
2022/11/26 10:11:40;;;;;;;12.20;4.80;;;14.70;99.90;;;;;;5096083;28;20588;-71
2022/11/26 10:14:29;;;;;;;12.82;4.70;;;15.30;99.90;;;;;;5096575;28;20195;-72
2022/11/26 10:17:30;;;;;;;14.48;4.93;;;15.70;99.90;;;;;;5095882;28;20176;-73
2022/11/26 10:20:32;;;;;;;13.63;4.80;;;15.90;99.90;;;;;;5095269;28;20171;-73
2022/11/26 10:23:04;;;;;;;12.90;4.53;;;16.50;99.90;;;;;;5095453;28;20635;-70
2022/11/26 10:25:44;;;;;;;14.05;4.63;;;16.50;99.90;;;;;;5095826;28;20233;-71
2022/11/26 10:28:18;;;;;;;12.57;4.40;;;16.20;99.90;;;;;;5095922;28;20202;-72
2022/11/26 10:30:48;;;;;;;14.55;4.45;;;16.10;99.90;;;;;;5077434;28;20198;-71
2022/11/26 10:33:17;;;;;;;13.90;4.35;;;15.90;99.90;;;;;;5094860;28;20255;-71
2022/11/26 10:35:45;;;;;;;18.35;4.97;;;15.30;99.90;;;;;;5095842;28;20253;-71
2022/11/26 10:38:11;;;;;;;11.27;4.37;;;14.80;99.90;;;;;;5095537;28;20189;-71
2022/11/26 10:40:37;;;;;;;15.23;4.67;;;14.50;99.90;;;;;;5095398;28;20266;-70
2022/11/26 10:43:07;;;;;;;13.43;4.53;;;14.20;99.90;;;;;;5095433;28;20171;-72
2022/11/26 10:45:41;;;;;;;15.53;4.70;;;14.20;99.90;;;;;;5095294;28;20222;-71
2022/11/26 10:48:21;;;;;;;13.27;4.00;;;14.40;99.90;;;;;;5095653;28;20223;-72
2022/11/26 10:51:08;;;;;;;16.13;4.50;;;14.30;99.90;;;;;;5094832;28;20198;-71
2022/11/26 10:54:00;;;;;;;17.17;4.77;;;14.20;99.90;;;;;;5094731;28;20272;-71
2022/11/26 10:56:55;;;;;;;15.67;4.47;;;14.10;99.90;;;;;;5094487;28;20180;-71
2022/11/26 10:59:43;;;;;;;11.87;4.40;;;14.10;99.90;;;;;;5072760;28;20184;-70
2022/11/26 11:02:27;;;;;;;13.67;4.70;;;14.00;99.90;;;;;;5095281;28;20279;-72
2022/11/26 11:04:55;;;;;;;15.27;4.80;;;13.90;99.90;;;;;;5095379;28;20250;-70
2022/11/26 11:07:36;;;;;;;18.13;4.67;;;13.90;99.90;;;;;;5094208;28;20518;-70
2022/11/26 11:10:12;;;;;;;16.73;4.50;;;13.80;99.90;;;;;;5094364;28;20156;-72
2022/11/26 11:12:42;;;;;;;15.27;4.80;;;13.70;99.90;;;;;;5094711;28;20167;-71
2022/11/26 11:15:17;;;;;;;17.00;4.20;;;14.20;99.90;;;;;;5094968;28;20394;-72
2022/11/26 11:17:44;;;;;;;15.30;4.23;;;14.40;99.90;;;;;;5094985;28;20179;-73
2022/11/26 11:20:15;;;;;;;14.47;4.60;;;14.70;99.90;;;;;;5094775;28;20168;-73
2022/11/26 11:22:45;;;;;;;13.07;4.50;;;15.00;99.90;;;;;;5094480;28;20172;-72
2022/11/26 11:25:27;;;;;;;13.68;4.40;;;14.90;99.90;;;;;;5094811;28;20168;-72
2022/11/26 11:27:59;;;;;;;15.27;4.30;;;14.90;99.90;;;;;;5093999;28;20180;-71
2022/11/26 11:30:31;;;;;;;15.37;4.33;;;14.60;99.90;;;;;;5094963;28;20211;-71
2022/11/26 11:33:19;;;;;;;11.47;4.17;;;14.70;99.90;;;;;;5088927;28;20323;-72
2022/11/26 11:35:55;;;;;;;17.70;5.47;;;14.60;99.90;;;;;;5074097;28;20208;-70
2022/11/26 11:38:27;;;;;;;73.83;50.57;;;14.50;99.90;;;;;;5074706;28;20177;-71
2022/11/26 11:40:53;;;;;;;21.80;10.33;;;14.60;99.90;;;;;;5073128;28;20169;-72
2022/11/26 11:43:21;;;;;;;14.55;4.00;;;14.80;99.90;;;;;;5074044;28;20561;-71
2022/11/26 11:46:08;;;;;;;16.80;9.20;;;14.60;99.90;;;;;;5073258;28;20243;-72
2022/11/26 11:48:42;;;;;;;20.23;6.27;;;14.40;99.90;;;;;;5073863;28;20169;-71
2022/11/26 11:51:44;;;;;;;21.53;8.60;;;14.40;99.90;;;;;;5073790;28;20164;-71
2022/11/26 11:54:56;;;;;;;16.00;6.40;;;14.20;99.90;;;;;;5073640;28;20200;-71
2022/11/26 11:57:25;;;;;;;11.97;4.70;;;14.20;99.90;;;;;;5073215;28;20288;-72
2022/11/26 12:00:12;;;;;;;13.57;5.43;;;14.20;99.90;;;;;;5072504;28;20177;-72
2022/11/26 12:02:55;;;;;;;17.37;5.03;;;14.10;99.90;;;;;;5073884;28;20534;-71
2022/11/26 12:05:34;;;;;;;13.63;4.90;;;13.70;99.90;;;;;;5073131;28;20180;-72
2022/11/26 12:08:21;;;;;;;15.20;5.10;;;13.60;99.90;;;;;;5073545;28;20630;-72
2022/11/26 12:10:47;;;;;;;18.83;13.17;;;13.70;99.90;;;;;;5073304;28;20184;-71
2022/11/26 12:13:14;;;;;;;18.00;5.40;;;13.90;99.90;;;;;;5072928;28;20535;-72
2022/11/26 12:15:54;;;;;;;61.83;55.43;;;14.00;99.90;;;;;;5073124;28;20722;-71
2022/11/26 12:18:20;;;;;;;13.93;5.00;;;14.20;99.90;;;;;;5071601;28;20666;-70
2022/11/26 12:20:47;;;;;;;35.50;25.17;;;14.40;99.90;;;;;;5073134;28;20165;-71
2022/11/26 12:24:02;;;;;;;14.80;5.03;;;14.70;99.90;;;;;;5072676;28;20177;-71
2022/11/26 12:26:38;;;;;;;17.47;5.37;;;14.90;99.90;;;;;;5069833;28;20505;-71
2022/11/26 12:29:32;;;;;;;12.80;4.90;;;14.60;99.90;;;;;;5073150;28;20172;-71
2022/11/26 12:32:14;;;;;;;21.90;5.73;;;14.30;99.90;;;;;;5078209;28;20212;-71
2022/11/26 12:34:51;;;;;;;18.37;5.37;;;14.00;99.90;;;;;;5092531;28;20214;-70
2022/11/26 12:37:26;;;;;;;12.93;4.87;;;13.90;99.90;;;;;;5093285;28;20176;-71
2022/11/26 12:40:33;;;;;;;17.57;4.23;;;13.60;99.90;;;;;;5093017;28;20171;-71
2022/11/26 12:43:15;;;;;;;16.67;4.30;;;13.50;99.90;;;;;;5091014;28;20198;-71
2022/11/26 12:45:50;;;;;;;15.87;5.27;;;13.50;99.90;;;;;;5092975;28;20174;-71
2022/11/26 12:48:36;;;;;;;22.80;12.03;;;13.40;99.90;;;;;;5092988;28;20255;-71
2022/11/26 12:51:23;;;;;;;26.50;9.80;;;13.40;99.90;;;;;;5092887;28;20199;-71
2022/11/26 12:54:03;;;;;;;20.93;8.80;;;13.50;99.90;;;;;;5092687;28;20631;-72
2022/11/26 12:56:32;;;;;;;36.17;24.73;;;13.40;99.90;;;;;;5092530;28;20631;-73
2022/11/26 12:59:22;;;;;;;29.80;18.97;;;13.20;99.90;;;;;;5092337;28;20194;-72
2022/11/26 13:01:47;;;;;;;16.63;8.00;;;13.20;99.90;;;;;;5093022;28;20180;-72